Time;durP1;ratioP1;P1;durP2;ratioP2;P2;SDS_P1;SDS_P2;PMS_P1;PMS_P2;Temp;Humidity;BMP_temperature;BMP_pressure;BME280_temperature;BME280_humidity;BME280_pressure;Samples;Min_cycle;Max_cycle;Signal;HPM_P1;HPM_P2
2023/05/28 00:01:59;;;;;;;4.63;2.08;;;;;;;;;;5102103;28;20111;-73
2023/05/28 00:04:25;;;;;;;6.53;1.88;;;;;;;;;;5111409;28;20385;-71
2023/05/28 00:06:53;;;;;;;6.72;2.10;;;;;;;;;;5105461;28;20027;-73
2023/05/28 00:09:19;;;;;;;8.82;2.40;;;;;;;;;;5092954;28;20020;-73
2023/05/28 00:11:45;;;;;;;5.75;2.13;;;;;;;;;;5094918;28;20032;-73
2023/05/28 00:14:10;;;;;;;3.40;1.73;;;;;;;;;;5105827;28;20027;-73
2023/05/28 00:16:37;;;;;;;7.57;2.30;;;;;;;;;;5115530;28;20054;-71
2023/05/28 00:19:03;;;;;;;7.60;3.20;;;;;;;;;;5104512;28;20027;-73
2023/05/28 00:21:32;;;;;;;7.70;3.45;;;;;;;;;;5095120;28;20044;-71
2023/05/28 00:23:57;;;;;;;8.00;2.55;;;;;;;;;;5110315;28;20512;-68
2023/05/28 00:26:22;;;;;;;6.93;2.40;;;;;;;;;;5101800;28;20030;-74
2023/05/28 00:28:48;;;;;;;5.90;2.28;;;;;;;;;;5101093;28;20099;-73
2023/05/28 00:31:13;;;;;;;10.20;2.72;;;;;;;;;;5107961;28;20028;-73
2023/05/28 00:33:39;;;;;;;4.30;2.28;;;;;;;;;;5094871;28;20523;-74
2023/05/28 00:36:05;;;;;;;4.85;2.00;;;;;;;;;;5102165;28;20036;-70
2023/05/28 00:38:30;;;;;;;4.15;2.15;;;;;;;;;;5098517;28;20107;-72
2023/05/28 00:40:56;;;;;;;7.75;2.20;;;;;;;;;;5097634;28;20524;-73
2023/05/28 00:43:21;;;;;;;5.20;2.70;;;;;;;;;;5110992;28;20034;-76
2023/05/28 00:45:50;;;;;;;8.50;3.25;;;;;;;;;;5094676;28;20024;-76
2023/05/28 00:48:17;;;;;;;6.30;4.32;;;;;;;;;;5100099;28;20032;-71
2023/05/28 00:50:43;;;;;;;7.78;4.35;;;;;;;;;;5114798;28;20111;-74
2023/05/28 00:53:10;;;;;;;12.32;4.43;;;;;;;;;;5114851;28;20024;-74
2023/05/28 00:55:35;;;;;;;9.07;3.47;;;;;;;;;;5104375;28;20020;-73
2023/05/28 00:58:05;;;;;;;8.60;4.10;;;;;;;;;;5094635;28;20031;-73
2023/05/28 01:00:31;;;;;;;10.18;3.72;;;;;;;;;;5096615;28;20024;-75
2023/05/28 01:02:56;;;;;;;9.73;3.58;;;;;;;;;;5114909;27;20031;-75
2023/05/28 01:05:22;;;;;;;10.20;3.70;;;;;;;;;;5114405;28;20039;-74
2023/05/28 01:07:47;;;;;;;6.97;3.35;;;;;;;;;;5104168;28;20085;-68
2023/05/28 01:10:13;;;;;;;7.80;3.80;;;;;;;;;;5094085;28;20095;-74
2023/05/28 01:12:41;;;;;;;7.10;3.70;;;;;;;;;;5094419;28;20020;-74
2023/05/28 01:15:07;;;;;;;8.10;3.65;;;;;;;;;;5113068;28;20098;-75
2023/05/28 01:17:33;;;;;;;8.48;4.97;;;;;;;;;;5114489;28;20042;-71
2023/05/28 01:20:10;;;;;;;15.15;8.27;;;;;;;;;;5106147;28;20025;-74
2023/05/28 01:22:40;;;;;;;9.55;5.50;;;;;;;;;;5093964;28;20039;-74
2023/05/28 01:25:10;;;;;;;11.48;4.68;;;;;;;;;;5093676;28;20054;-70
2023/05/28 01:27:39;;;;;;;9.27;4.75;;;;;;;;;;5110154;28;20063;-73
2023/05/28 01:30:09;;;;;;;11.65;4.47;;;;;;;;;;5114009;28;20325;-74
2023/05/28 01:32:36;;;;;;;7.77;4.53;;;;;;;;;;5105414;28;20032;-73
2023/05/28 01:35:03;;;;;;;10.88;4.20;;;;;;;;;;5093764;28;20504;-74
2023/05/28 01:37:30;;;;;;;7.85;3.70;;;;;;;;;;5093632;28;20241;-74
2023/05/28 01:39:57;;;;;;;9.07;3.67;;;;;;;;;;5105796;28;20519;-74
2023/05/28 01:42:23;;;;;;;8.48;4.13;;;;;;;;;;5093607;28;20550;-75
2023/05/28 01:44:50;;;;;;;10.75;4.43;;;;;;;;;;5094977;28;20023;-75
2023/05/28 01:47:15;;;;;;;6.78;4.32;;;;;;;;;;5093288;28;20181;-74
2023/05/28 01:49:41;;;;;;;10.57;5.03;;;;;;;;;;5093705;28;20122;-75
2023/05/28 01:52:07;;;;;;;8.38;5.13;;;;;;;;;;5108286;28;20024;-70
2023/05/28 01:54:33;;;;;;;11.23;5.10;;;;;;;;;;5113353;28;20027;-74
2023/05/28 01:56:58;;;;;;;12.02;4.97;;;;;;;;;;5110967;28;20019;-74
2023/05/28 01:59:24;;;;;;;9.52;4.60;;;;;;;;;;5093287;28;20162;-74
2023/05/28 02:01:51;;;;;;;7.78;4.45;;;;;;;;;;5092117;28;20035;-73
2023/05/28 02:04:16;;;;;;;8.40;4.15;;;;;;;;;;5104133;28;20027;-71
2023/05/28 02:06:45;;;;;;;7.65;4.63;;;;;;;;;;5113466;28;20028;-74
2023/05/28 02:09:11;;;;;;;8.90;5.03;;;;;;;;;;5113043;28;20023;-74
2023/05/28 02:11:36;;;;;;;11.00;4.55;;;;;;;;;;5092966;28;20485;-71
2023/05/28 02:14:03;;;;;;;7.82;4.82;;;;;;;;;;5093100;28;20024;-74
2023/05/28 02:16:29;;;;;;;9.43;4.82;;;;;;;;;;5102393;28;20024;-71
2023/05/28 02:18:55;;;;;;;8.93;5.13;;;;;;;;;;5113419;28;20039;-73
2023/05/28 02:21:20;;;;;;;9.25;4.70;;;;;;;;;;5112682;28;20435;-74
2023/05/28 02:23:48;;;;;;;10.30;5.07;;;;;;;;;;5095193;28;20051;-75
2023/05/28 02:26:13;;;;;;;9.63;4.78;;;;;;;;;;5092844;28;20377;-74
2023/05/28 02:28:42;;;;;;;13.00;5.80;;;;;;;;;;5094948;28;20039;-74
2023/05/28 02:31:11;;;;;;;9.43;5.50;;;;;;;;;;5112572;28;20123;-71
2023/05/28 02:33:38;;;;;;;10.05;4.82;;;;;;;;;;5113000;28;20495;-73
2023/05/28 02:36:06;;;;;;;9.65;4.95;;;;;;;;;;5098132;28;20039;-74
2023/05/28 02:38:31;;;;;;;9.45;4.63;;;;;;;;;;5096230;28;20032;-75
2023/05/28 02:40:57;;;;;;;8.55;4.90;;;;;;;;;;5106698;28;20035;-75
2023/05/28 02:43:22;;;;;;;8.02;4.70;;;;;;;;;;5112388;28;20027;-75
2023/05/28 02:45:48;;;;;;;8.45;4.78;;;;;;;;;;5092512;28;20363;-75
2023/05/28 02:48:13;;;;;;;10.10;4.85;;;;;;;;;;5112871;28;20019;-75
2023/05/28 02:50:39;;;;;;;9.27;4.78;;;;;;;;;;5112182;28;20028;-73
2023/05/28 02:53:05;;;;;;;11.88;4.90;;;;;;;;;;5102049;28;20028;-75
2023/05/28 02:55:30;;;;;;;6.93;4.38;;;;;;;;;;5092400;28;20103;-76
2023/05/28 02:57:55;;;;;;;6.50;4.20;;;;;;;;;;5093004;28;20020;-68
2023/05/28 03:00:21;;;;;;;7.65;3.85;;;;;;;;;;5112330;28;20366;-75
2023/05/28 03:02:47;;;;;;;10.85;4.50;;;;;;;;;;5112593;28;20020;-74
2023/05/28 03:05:13;;;;;;;10.05;4.43;;;;;;;;;;5106365;28;20485;-75
2023/05/28 03:07:38;;;;;;;7.72;3.72;;;;;;;;;;5092129;28;20024;-73
2023/05/28 03:10:05;;;;;;;9.50;3.97;;;;;;;;;;5091839;28;20028;-74
2023/05/28 03:12:30;;;;;;;8.57;4.22;;;;;;;;;;5106114;28;20103;-74
2023/05/28 03:14:55;;;;;;;8.90;4.53;;;;;;;;;;5112154;28;20107;-71
2023/05/28 03:17:21;;;;;;;9.13;4.20;;;;;;;;;;5105570;28;20032;-75
2023/05/28 03:19:46;;;;;;;8.15;4.32;;;;;;;;;;5091717;28;20031;-73
2023/05/28 03:22:12;;;;;;;11.43;5.47;;;;;;;;;;5091845;28;20536;-74
2023/05/28 03:24:38;;;;;;;10.95;4.50;;;;;;;;;;5102118;28;20027;-76
2023/05/28 03:27:05;;;;;;;8.27;4.38;;;;;;;;;;5092698;28;20085;-76
2023/05/28 03:29:31;;;;;;;7.55;4.22;;;;;;;;;;5091646;28;20035;-75
2023/05/28 03:31:56;;;;;;;12.45;4.20;;;;;;;;;;5110547;28;20023;-76
2023/05/28 03:34:23;;;;;;;12.20;4.03;;;;;;;;;;5110431;28;20032;-72
2023/05/28 03:36:49;;;;;;;10.23;3.80;;;;;;;;;;5100933;28;20556;-75
2023/05/28 03:39:15;;;;;;;6.18;3.45;;;;;;;;;;5099763;28;20439;-75
2023/05/28 03:41:40;;;;;;;8.85;3.65;;;;;;;;;;5098594;28;20086;-71
2023/05/28 03:44:06;;;;;;;7.50;3.55;;;;;;;;;;5104934;28;20062;-74
2023/05/28 03:46:31;;;;;;;5.85;3.30;;;;;;;;;;5091494;28;20541;-76
2023/05/28 03:48:57;;;;;;;9.45;3.60;;;;;;;;;;5099558;28;20115;-75
2023/05/28 03:51:23;;;;;;;6.57;3.80;;;;;;;;;;5111227;28;20063;-75
2023/05/28 03:53:49;;;;;;;8.30;3.30;;;;;;;;;;5110534;28;20016;-75
2023/05/28 03:56:18;;;;;;;5.00;3.00;;;;;;;;;;5099165;28;20385;-75
2023/05/28 03:58:44;;;;;;;7.55;3.30;;;;;;;;;;5091617;28;20024;-77
2023/05/28 04:01:09;;;;;;;7.28;2.92;;;;;;;;;;5092245;28;20061;-78
2023/05/28 04:03:35;;;;;;;7.28;3.28;;;;;;;;;;5111496;28;20027;-75
2023/05/28 04:06:01;;;;;;;8.35;3.38;;;;;;;;;;5111479;28;20027;-77
2023/05/28 04:08:26;;;;;;;8.07;3.30;;;;;;;;;;5102124;28;20027;-75
2023/05/28 04:10:52;;;;;;;7.43;3.28;;;;;;;;;;5091191;28;20032;-73
2023/05/28 04:13:17;;;;;;;5.68;3.17;;;;;;;;;;5091198;28;20034;-68
2023/05/28 04:15:43;;;;;;;8.30;3.42;;;;;;;;;;5110431;28;20483;-72
2023/05/28 04:18:08;;;;;;;7.25;3.22;;;;;;;;;;5111212;28;20372;-71
2023/05/28 04:20:35;;;;;;;6.65;3.50;;;;;;;;;;5100403;28;20036;-73
2023/05/28 04:23:01;;;;;;;7.93;3.20;;;;;;;;;;5091066;28;20066;-69
2023/05/28 04:25:26;;;;;;;9.85;4.05;;;;;;;;;;5092080;28;20044;-73
2023/05/28 04:27:52;;;;;;;9.57;3.72;;;;;;;;;;5091117;28;20497;-74
2023/05/28 04:30:17;;;;;;;7.00;3.38;;;;;;;;;;5093130;28;20032;-68
2023/05/28 04:32:43;;;;;;;8.52;3.40;;;;;;;;;;5104991;28;20457;-72
2023/05/28 04:35:08;;;;;;;9.27;3.75;;;;;;;;;;5090943;28;20050;-72
2023/05/28 04:37:36;;;;;;;9.10;3.17;;;;;;;;;;5102136;28;20448;-74
2023/05/28 04:40:03;;;;;;;5.68;3.08;;;;;;;;;;5100192;28;20039;-72
2023/05/28 04:42:29;;;;;;;6.85;3.70;;;;;;;;;;5107214;28;20503;-74
2023/05/28 04:44:55;;;;;;;10.43;3.28;;;;;;;;;;5090716;28;20028;-73
2023/05/28 04:47:22;;;;;;;4.32;2.80;;;;;;;;;;5090287;28;20505;-71
2023/05/28 04:49:48;;;;;;;6.78;3.03;;;;;;;;;;5109134;28;20036;-69
2023/05/28 04:52:14;;;;;;;10.85;3.20;;;;;;;;;;5110922;28;20020;-71
2023/05/28 04:54:39;;;;;;;6.68;3.45;;;;;;;;;;5105633;28;20024;-74
2023/05/28 04:57:05;;;;;;;8.38;2.80;;;;;;;;;;5093664;28;20035;-73
2023/05/28 04:59:31;;;;;;;8.75;3.00;;;;;;;;;;5094579;28;20028;-67
2023/05/28 05:01:56;;;;;;;8.05;2.80;;;;;;;;;;5110003;28;20392;-71
2023/05/28 05:04:22;;;;;;;8.88;2.97;;;;;;;;;;5115162;28;20224;-67
2023/05/28 05:06:47;;;;;;;6.60;2.70;;;;;;;;;;5113145;28;20039;-71
2023/05/28 05:09:12;;;;;;;7.65;3.13;;;;;;;;;;5094086;28;20074;-72
2023/05/28 05:11:38;;;;;;;7.82;2.97;;;;;;;;;;5094064;28;20370;-72
2023/05/28 05:14:03;;;;;;;6.07;2.83;;;;;;;;;;5103995;28;20028;-67
2023/05/28 05:16:29;;;;;;;7.00;3.33;;;;;;;;;;5114012;28;20024;-70
2023/05/28 05:18:55;;;;;;;8.20;3.40;;;;;;;;;;5114746;28;20032;-72
2023/05/28 05:21:21;;;;;;;6.95;3.35;;;;;;;;;;5096405;28;20039;-70
2023/05/28 05:23:48;;;;;;;9.73;3.35;;;;;;;;;;5094140;28;20028;-67
2023/05/28 05:26:16;;;;;;;7.90;3.45;;;;;;;;;;5099308;28;20032;-73
2023/05/28 05:28:42;;;;;;;6.75;2.88;;;;;;;;;;5114255;28;20030;-71
2023/05/28 05:31:08;;;;;;;6.40;2.90;;;;;;;;;;5113700;28;20032;-73
2023/05/28 05:33:33;;;;;;;4.97;2.90;;;;;;;;;;5099693;28;20070;-72
2023/05/28 05:35:59;;;;;;;5.50;3.10;;;;;;;;;;5093746;28;20339;-68
2023/05/28 05:38:24;;;;;;;10.48;3.25;;;;;;;;;;5100337;28;20027;-72
2023/05/28 05:40:50;;;;;;;7.47;3.20;;;;;;;;;;5114114;28;20031;-69
2023/05/28 05:43:15;;;;;;;6.32;3.03;;;;;;;;;;5094110;28;20039;-71
2023/05/28 05:45:41;;;;;;;5.85;3.10;;;;;;;;;;5093426;28;20066;-71
2023/05/28 05:48:06;;;;;;;5.10;3.10;;;;;;;;;;5093679;28;20693;-72
2023/05/28 05:50:32;;;;;;;7.18;2.97;;;;;;;;;;5097047;28;20488;-72
2023/05/28 05:52:59;;;;;;;9.55;3.30;;;;;;;;;;5113536;28;20035;-72
2023/05/28 05:55:24;;;;;;;7.00;3.15;;;;;;;;;;5113758;28;20031;-73
2023/05/28 05:57:50;;;;;;;6.07;2.90;;;;;;;;;;5102002;28;20028;-73
2023/05/28 06:00:15;;;;;;;6.03;3.08;;;;;;;;;;5093097;28;20026;-67
2023/05/28 06:02:41;;;;;;;9.73;3.25;;;;;;;;;;5096588;28;20446;-74
2023/05/28 06:05:07;;;;;;;10.50;3.08;;;;;;;;;;5113683;28;20020;-72
2023/05/28 06:07:32;;;;;;;5.70;2.85;;;;;;;;;;5112917;28;20020;-72
2023/05/28 06:09:58;;;;;;;5.95;2.70;;;;;;;;;;5093125;28;20392;-72
2023/05/28 06:12:24;;;;;;;6.25;2.97;;;;;;;;;;5093286;28;20107;-71
2023/05/28 06:14:49;;;;;;;5.90;3.03;;;;;;;;;;5099417;28;20616;-67
2023/05/28 06:17:15;;;;;;;9.23;3.65;;;;;;;;;;5112069;28;20042;-71
2023/05/28 06:19:41;;;;;;;8.25;2.67;;;;;;;;;;5113761;28;20027;-72
2023/05/28 06:22:07;;;;;;;6.28;2.88;;;;;;;;;;5102365;28;20136;-71
2023/05/28 06:24:33;;;;;;;8.82;2.67;;;;;;;;;;5092976;28;20035;-72
2023/05/28 06:26:58;;;;;;;6.80;3.10;;;;;;;;;;5094425;28;20028;-73
2023/05/28 06:29:24;;;;;;;7.20;2.70;;;;;;;;;;5113029;28;20154;-69
2023/05/28 06:31:50;;;;;;;8.70;2.97;;;;;;;;;;5112734;28;20038;-69
2023/05/28 06:34:16;;;;;;;3.95;2.45;;;;;;;;;;5104679;28;20028;-69
2023/05/28 06:36:41;;;;;;;8.32;2.65;;;;;;;;;;5092614;28;20028;-70
2023/05/28 06:39:07;;;;;;;7.95;2.70;;;;;;;;;;5100994;28;20027;-71
2023/05/28 06:41:32;;;;;;;6.28;2.72;;;;;;;;;;5112638;27;20023;-71
2023/05/28 06:43:58;;;;;;;8.30;2.30;;;;;;;;;;5107329;28;20024;-69
2023/05/28 06:46:24;;;;;;;6.30;2.22;;;;;;;;;;5102115;28;20051;-71
2023/05/28 06:48:50;;;;;;;5.43;2.70;;;;;;;;;;5112761;28;20036;-71
2023/05/28 06:51:15;;;;;;;6.90;2.28;;;;;;;;;;5112189;28;20035;-73
2023/05/28 06:53:41;;;;;;;5.72;2.72;;;;;;;;;;5095134;28;20316;-72
2023/05/28 06:56:06;;;;;;;10.60;2.65;;;;;;;;;;5092457;28;20154;-72
2023/05/28 06:58:31;;;;;;;4.63;2.42;;;;;;;;;;5101287;28;20016;-72
2023/05/28 07:01:01;;;;;;;5.47;2.20;;;;;;;;;;5104367;28;20155;-72
2023/05/28 07:03:27;;;;;;;8.30;2.40;;;;;;;;;;5092154;28;20016;-73
2023/05/28 07:05:52;;;;;;;5.75;2.45;;;;;;;;;;5092201;28;20040;-72
2023/05/28 07:08:17;;;;;;;3.40;2.00;;;;;;;;;;5092028;28;20039;-71
2023/05/28 07:10:43;;;;;;;4.63;2.00;;;;;;;;;;5091995;28;20024;-71
2023/05/28 07:13:08;;;;;;;6.57;2.40;;;;;;;;;;5091668;28;20024;-69
2023/05/28 07:15:34;;;;;;;10.93;2.22;;;;;;;;;;5092085;28;20042;-70
2023/05/28 07:18:01;;;;;;;6.15;2.10;;;;;;;;;;5091560;28;20043;-71
2023/05/28 07:20:26;;;;;;;6.60;2.25;;;;;;;;;;5091539;28;20056;-65
2023/05/28 07:22:52;;;;;;;6.72;2.40;;;;;;;;;;5091835;28;20063;-71
2023/05/28 07:25:17;;;;;;;5.25;2.17;;;;;;;;;;5091508;28;20069;-71
2023/05/28 07:27:43;;;;;;;7.60;2.30;;;;;;;;;;5091371;28;20057;-71
2023/05/28 07:30:09;;;;;;;5.10;2.10;;;;;;;;;;5094824;28;20024;-71
2023/05/28 07:32:34;;;;;;;11.82;2.05;;;;;;;;;;5106953;28;20497;-71
2023/05/28 07:34:59;;;;;;;4.85;2.30;;;;;;;;;;5091396;28;20020;-66
2023/05/28 07:37:25;;;;;;;3.50;2.10;;;;;;;;;;5091214;28;20168;-69
2023/05/28 07:39:50;;;;;;;7.18;2.25;;;;;;;;;;5092393;28;20020;-70
2023/05/28 07:42:16;;;;;;;4.85;2.17;;;;;;;;;;5087794;28;20115;-71
2023/05/28 07:44:41;;;;;;;5.35;2.38;;;;;;;;;;5092455;28;20445;-70
2023/05/28 07:47:06;;;;;;;5.22;2.35;;;;;;;;;;5092913;28;20105;-71
2023/05/28 07:49:32;;;;;;;4.93;2.35;;;;;;;;;;5094030;28;20032;-71
2023/05/28 07:51:57;;;;;;;6.05;2.10;;;;;;;;;;5092030;28;20393;-71
2023/05/28 07:54:23;;;;;;;5.85;2.00;;;;;;;;;;5092340;28;20461;-65
2023/05/28 07:56:48;;;;;;;9.15;2.10;;;;;;;;;;5092190;28;20110;-72
2023/05/28 07:59:14;;;;;;;5.57;2.42;;;;;;;;;;5091278;28;20024;-71
2023/05/28 08:01:40;;;;;;;4.13;2.15;;;;;;;;;;5092261;28;20121;-67
2023/05/28 08:04:05;;;;;;;5.25;3.00;;;;;;;;;;5085448;28;20443;-72
2023/05/28 08:06:32;;;;;;;5.85;3.22;;;;;;;;;;5090411;28;20020;-72
2023/05/28 08:08:58;;;;;;;5.05;2.17;;;;;;;;;;5092272;28;20055;-69
2023/05/28 08:11:24;;;;;;;5.32;2.03;;;;;;;;;;5094331;28;20448;-69
2023/05/28 08:13:49;;;;;;;4.70;2.00;;;;;;;;;;5091765;28;20036;-71
2023/05/28 08:16:15;;;;;;;3.92;1.80;;;;;;;;;;5092068;28;20016;-69
2023/05/28 08:18:40;;;;;;;5.70;2.20;;;;;;;;;;5091718;28;20111;-67
2023/05/28 08:21:07;;;;;;;3.97;1.88;;;;;;;;;;5092418;28;20042;-70
2023/05/28 08:23:34;;;;;;;6.47;2.17;;;;;;;;;;5092353;28;20077;-71
2023/05/28 08:26:03;;;;;;;7.03;2.17;;;;;;;;;;5091698;28;20109;-71
2023/05/28 08:28:32;;;;;;;4.47;2.30;;;;;;;;;;5091784;28;20022;-68
2023/05/28 08:30:57;;;;;;;7.37;2.37;;;;;;;;;;5091960;28;20030;-64
2023/05/28 08:33:23;;;;;;;9.73;2.30;;;;;;;;;;5097380;28;20023;-72
2023/05/28 08:35:49;;;;;;;4.45;2.03;;;;;;;;;;5095531;28;20032;-68
2023/05/28 08:38:14;;;;;;;5.28;2.00;;;;;;;;;;5096381;28;20138;-69
2023/05/28 08:40:42;;;;;;;4.68;2.10;;;;;;;;;;5095635;28;20081;-70
2023/05/28 08:43:08;;;;;;;5.15;2.20;;;;;;;;;;5096341;28;20023;-72
2023/05/28 08:45:35;;;;;;;4.88;2.08;;;;;;;;;;5095999;28;20041;-71
2023/05/28 08:48:00;;;;;;;6.97;2.30;;;;;;;;;;5095304;28;20493;-70
2023/05/28 08:50:27;;;;;;;5.65;2.50;;;;;;;;;;5095493;28;20039;-70
2023/05/28 08:52:54;;;;;;;6.80;2.38;;;;;;;;;;5095543;28;20027;-64
2023/05/28 08:55:19;;;;;;;7.68;2.30;;;;;;;;;;5097067;28;20470;-68
2023/05/28 08:57:46;;;;;;;2.97;1.60;;;;;;;;;;5095509;28;20051;-69
2023/05/28 09:00:12;;;;;;;5.03;2.05;;;;;;;;;;5095122;28;20461;-71
2023/05/28 09:02:38;;;;;;;5.45;2.30;;;;;;;;;;5092805;28;20043;-70
2023/05/28 09:05:05;;;;;;;4.65;2.05;;;;;;;;;;5095485;28;20020;-65
2023/05/28 09:07:30;;;;;;;4.63;2.30;;;;;;;;;;5096102;28;20047;-64
2023/05/28 09:09:57;;;;;;;3.83;1.85;;;;;;;;;;5095277;28;20457;-72
2023/05/28 09:12:23;;;;;;;5.15;2.05;;;;;;;;;;5095441;28;20074;-70
2023/05/28 09:14:52;;;;;;;7.00;2.30;;;;;;;;;;5097456;28;20015;-67
2023/05/28 09:17:32;;;;;;;6.60;2.22;;;;;;;;;;5098594;28;20047;-70
2023/05/28 09:19:59;;;;;;;8.70;2.10;;;;;;;;;;5075186;28;20028;-72
2023/05/28 09:22:26;;;;;;;7.22;1.90;;;;;;;;;;5088276;28;20043;-62
2023/05/28 09:24:54;;;;;;;6.00;2.30;;;;;;;;;;5094103;28;20042;-71
2023/05/28 09:27:21;;;;;;;5.05;2.20;;;;;;;;;;5108390;28;20030;-69
2023/05/28 09:29:46;;;;;;;4.25;1.90;;;;;;;;;;5114119;28;20123;-73
2023/05/28 09:32:18;;;;;;;8.68;2.40;;;;;;;;;;5114331;28;20520;-73
2023/05/28 09:34:44;;;;;;;3.75;1.88;;;;;;;;;;5113793;28;20366;-71
2023/05/28 09:37:10;;;;;;;6.97;2.30;;;;;;;;;;5098485;28;20085;-70
2023/05/28 09:39:35;;;;;;;4.85;2.00;;;;;;;;;;5093442;28;20089;-70
2023/05/28 09:42:13;;;;;;;4.15;2.13;;;;;;;;;;5094134;28;20393;-69
2023/05/28 09:44:40;;;;;;;4.88;1.80;;;;;;;;;;5094492;28;20081;-70
2023/05/28 09:47:13;;;;;;;6.95;2.10;;;;;;;;;;5094404;28;20459;-64
2023/05/28 09:49:38;;;;;;;5.40;1.80;;;;;;;;;;5094649;28;20484;-67
2023/05/28 09:52:06;;;;;;;3.78;1.60;;;;;;;;;;5094428;28;20028;-68
2023/05/28 09:54:35;;;;;;;5.75;1.95;;;;;;;;;;5094628;28;20397;-70
2023/05/28 09:57:05;;;;;;;5.68;2.10;;;;;;;;;;5094197;28;20027;-63
2023/05/28 09:59:32;;;;;;;4.10;1.80;;;;;;;;;;5110343;28;20103;-70
2023/05/28 10:02:44;;;;;;;5.28;2.13;;;;;;;;;;5114566;28;20055;-67
2023/05/28 10:05:11;;;;;;;4.85;1.90;;;;;;;;;;4992383;28;20038;-70
2023/05/28 10:07:40;;;;;;;3.72;1.80;;;;;;;;;;4992576;28;20125;-69
2023/05/28 10:10:08;;;;;;;6.43;2.10;;;;;;;;;;4992371;28;20046;-67
2023/05/28 10:12:33;;;;;;;4.00;1.90;;;;;;;;;;4992481;28;20534;-71
2023/05/28 10:15:00;;;;;;;8.27;2.10;;;;;;;;;;4991638;28;20129;-67
2023/05/28 10:17:26;;;;;;;4.47;1.98;;;;;;;;;;4987349;28;20053;-70
2023/05/28 10:19:51;;;;;;;3.80;2.05;;;;;;;;;;4992210;28;20440;-69
2023/05/28 10:22:18;;;;;;;4.20;2.10;;;;;;;;;;4992027;28;20042;-71
2023/05/28 10:24:44;;;;;;;4.57;2.00;;;;;;;;;;4992308;28;20121;-68
2023/05/28 10:27:15;;;;;;;4.40;2.00;;;;;;;;;;4973068;28;20039;-69
2023/05/28 10:29:44;;;;;;;6.63;1.95;;;;;;;;;;4987585;28;20117;-70
2023/05/28 10:32:13;;;;;;;5.22;2.00;;;;;;;;;;4992282;28;20582;-70
2023/05/28 10:34:38;;;;;;;5.53;1.87;;;;;;;;;;4979972;28;20511;-71
2023/05/28 10:37:06;;;;;;;4.28;2.03;;;;;;;;;;4955704;28;20130;-68
2023/05/28 10:39:45;;;;;;;5.30;2.13;;;;;;;;;;4967880;28;20154;-70
2023/05/28 10:42:14;;;;;;;3.87;1.80;;;;;;;;;;5024306;28;20036;-70
2023/05/28 10:44:50;;;;;;;7.68;1.95;;;;;;;;;;5087783;28;20035;-68
2023/05/28 10:47:18;;;;;;;4.72;1.90;;;;;;;;;;5093286;28;20055;-66
2023/05/28 10:50:02;;;;;;;4.15;1.90;;;;;;;;;;5092850;28;20153;-68
2023/05/28 10:52:30;;;;;;;8.07;2.05;;;;;;;;;;5092144;28;20496;-70
2023/05/28 10:54:56;;;;;;;7.45;2.63;;;;;;;;;;5095247;28;20070;-68
2023/05/28 10:57:21;;;;;;;6.07;2.13;;;;;;;;;;5097541;28;20023;-69
2023/05/28 10:59:54;;;;;;;4.80;1.98;;;;;;;;;;5094876;28;20036;-70
2023/05/28 11:02:25;;;;;;;6.50;2.08;;;;;;;;;;5092594;28;20057;-63
2023/05/28 11:05:01;;;;;;;5.82;1.83;;;;;;;;;;5094751;28;20401;-67
2023/05/28 11:07:36;;;;;;;5.45;2.00;;;;;;;;;;5093359;28;20055;-70
2023/05/28 11:10:15;;;;;;;7.00;2.10;;;;;;;;;;5092682;28;20031;-69
2023/05/28 11:12:42;;;;;;;3.72;1.98;;;;;;;;;;5092982;28;20032;-70
2023/05/28 11:15:09;;;;;;;3.78;1.80;;;;;;;;;;5091588;28;20032;-68
2023/05/28 11:17:45;;;;;;;5.78;2.25;;;;;;;;;;5093183;28;20054;-67
2023/05/28 11:20:16;;;;;;;3.90;1.90;;;;;;;;;;5092847;28;20085;-62
2023/05/28 11:22:41;;;;;;;10.13;2.33;;;;;;;;;;5092710;28;20036;-69
2023/05/28 11:25:09;;;;;;;7.85;1.88;;;;;;;;;;5092771;28;20038;-70
2023/05/28 11:27:36;;;;;;;3.03;1.67;;;;;;;;;;5093043;28;20028;-71
2023/05/28 11:30:13;;;;;;;4.88;1.90;;;;;;;;;;5092854;28;20547;-70
2023/05/28 11:32:39;;;;;;;5.75;2.03;;;;;;;;;;5092117;28;20474;-71
2023/05/28 11:35:05;;;;;;;4.70;2.10;;;;;;;;;;5107755;28;20030;-67
2023/05/28 11:37:33;;;;;;;4.47;2.13;;;;;;;;;;5100708;28;20036;-69
2023/05/28 11:39:59;;;;;;;5.22;1.92;;;;;;;;;;5094533;28;20028;-68
2023/05/28 11:42:28;;;;;;;6.15;2.50;;;;;;;;;;5092719;28;20032;-71
2023/05/28 11:44:53;;;;;;;6.45;2.20;;;;;;;;;;5092645;28;20028;-67
2023/05/28 11:47:20;;;;;;;4.60;2.30;;;;;;;;;;5091638;28;20047;-68
2023/05/28 11:49:47;;;;;;;7.35;2.22;;;;;;;;;;5092112;28;20499;-65
2023/05/28 11:52:20;;;;;;;6.32;1.98;;;;;;;;;;5091754;28;20024;-71
2023/05/28 11:54:51;;;;;;;4.88;2.08;;;;;;;;;;5089385;28;20461;-67
2023/05/28 11:57:23;;;;;;;4.80;1.80;;;;;;;;;;5091890;28;20109;-65
2023/05/28 11:59:58;;;;;;;4.38;2.08;;;;;;;;;;5095567;28;20036;-70
2023/05/28 12:02:24;;;;;;;3.47;1.60;;;;;;;;;;5092646;28;20067;-70
2023/05/28 12:05:00;;;;;;;10.43;2.15;;;;;;;;;;5092304;28;20389;-68
2023/05/28 12:07:33;;;;;;;4.38;1.98;;;;;;;;;;5091103;28;20388;-68
2023/05/28 12:10:09;;;;;;;3.00;1.83;;;;;;;;;;5092369;28;20031;-66
2023/05/28 12:12:41;;;;;;;4.70;2.00;;;;;;;;;;5092135;28;20067;-69
2023/05/28 12:15:07;;;;;;;7.35;2.13;;;;;;;;;;5092308;28;20028;-70
2023/05/28 12:17:36;;;;;;;7.10;1.90;;;;;;;;;;5092362;28;20413;-62
2023/05/28 12:20:15;;;;;;;4.10;2.00;;;;;;;;;;5092186;28;20111;-68
2023/05/28 12:22:41;;;;;;;4.75;2.13;;;;;;;;;;5092285;28;20477;-69
2023/05/28 12:25:07;;;;;;;4.55;1.90;;;;;;;;;;5092101;28;20101;-64
2023/05/28 12:27:33;;;;;;;8.13;2.10;;;;;;;;;;5092248;28;20038;-71
2023/05/28 12:29:59;;;;;;;5.47;1.83;;;;;;;;;;5092293;28;20019;-70
2023/05/28 12:32:25;;;;;;;4.60;1.90;;;;;;;;;;5091832;28;20453;-69
2023/05/28 12:34:53;;;;;;;4.38;2.20;;;;;;;;;;5101740;28;20036;-70
2023/05/28 12:37:20;;;;;;;6.88;1.92;;;;;;;;;;5101723;28;20380;-69
2023/05/28 12:39:45;;;;;;;5.03;1.83;;;;;;;;;;5097241;28;20040;-65
2023/05/28 12:42:11;;;;;;;6.97;2.05;;;;;;;;;;5092103;28;20094;-64
2023/05/28 12:44:36;;;;;;;5.00;1.83;;;;;;;;;;5099027;28;20491;-69
2023/05/28 12:47:02;;;;;;;4.50;1.80;;;;;;;;;;5112107;28;20039;-64
2023/05/28 12:49:27;;;;;;;4.28;1.88;;;;;;;;;;5112004;28;20035;-70
2023/05/28 12:51:53;;;;;;;6.50;1.80;;;;;;;;;;5112202;28;20028;-69
2023/05/28 12:54:18;;;;;;;4.50;1.70;;;;;;;;;;5112221;28;20103;-71
2023/05/28 12:56:44;;;;;;;4.72;1.70;;;;;;;;;;5112287;28;20385;-71
2023/05/28 12:59:22;;;;;;;6.15;2.10;;;;;;;;;;5101091;28;20038;-67
2023/05/28 13:01:48;;;;;;;4.80;1.63;;;;;;;;;;5091919;28;20024;-70
2023/05/28 13:04:13;;;;;;;4.93;1.88;;;;;;;;;;5092016;28;20439;-68
2023/05/28 13:06:39;;;;;;;4.45;1.50;;;;;;;;;;5091742;28;20024;-69
2023/05/28 13:09:05;;;;;;;5.18;1.80;;;;;;;;;;5091858;28;20031;-68
2023/05/28 13:11:31;;;;;;;5.20;2.10;;;;;;;;;;5091920;28;20059;-66
2023/05/28 13:13:57;;;;;;;3.80;1.80;;;;;;;;;;5091794;28;20024;-70
2023/05/28 13:16:22;;;;;;;4.43;1.77;;;;;;;;;;5091920;28;20371;-67
2023/05/28 13:18:48;;;;;;;5.78;1.85;;;;;;;;;;5095166;28;20020;-64
2023/05/28 13:21:13;;;;;;;5.35;1.52;;;;;;;;;;5095161;28;20028;-68
2023/05/28 13:23:39;;;;;;;6.18;1.90;;;;;;;;;;5095111;28;20019;-70
2023/05/28 13:26:04;;;;;;;8.07;2.08;;;;;;;;;;5095208;28;20036;-71
2023/05/28 13:28:29;;;;;;;6.50;2.30;;;;;;;;;;5095000;28;20051;-70
2023/05/28 13:30:55;;;;;;;5.40;2.17;;;;;;;;;;5094785;28;20089;-68
2023/05/28 13:33:20;;;;;;;5.03;2.00;;;;;;;;;;5095044;28;20039;-67
2023/05/28 13:35:46;;;;;;;4.32;1.77;;;;;;;;;;5109040;28;20039;-70
2023/05/28 13:38:12;;;;;;;6.10;1.98;;;;;;;;;;5098167;28;20024;-71
2023/05/28 13:40:38;;;;;;;6.22;1.80;;;;;;;;;;5102461;28;20028;-72
2023/05/28 13:43:03;;;;;;;4.72;2.33;;;;;;;;;;5094721;28;20523;-71
2023/05/28 13:45:31;;;;;;;4.10;2.00;;;;;;;;;;5105916;28;20032;-69
2023/05/28 13:47:56;;;;;;;5.80;2.10;;;;;;;;;;5114815;28;20466;-71
2023/05/28 13:50:22;;;;;;;7.20;1.88;;;;;;;;;;5111245;28;20032;-71
2023/05/28 13:52:48;;;;;;;3.75;1.92;;;;;;;;;;5115151;28;20039;-70
2023/05/28 13:55:13;;;;;;;5.68;2.00;;;;;;;;;;5114566;28;20494;-71
2023/05/28 13:57:39;;;;;;;4.20;2.00;;;;;;;;;;5114850;28;20081;-71
2023/05/28 14:00:07;;;;;;;4.18;1.80;;;;;;;;;;5114642;28;20020;-71
2023/05/28 14:02:33;;;;;;;5.32;1.92;;;;;;;;;;5114673;28;20031;-68
2023/05/28 14:04:58;;;;;;;4.57;2.00;;;;;;;;;;5103316;28;20031;-71
2023/05/28 14:07:23;;;;;;;3.78;1.95;;;;;;;;;;5092643;28;20032;-71
2023/05/28 14:09:49;;;;;;;6.78;2.10;;;;;;;;;;5103648;28;20020;-71
2023/05/28 14:12:14;;;;;;;4.18;1.90;;;;;;;;;;5093854;28;20028;-71
2023/05/28 14:14:40;;;;;;;5.95;1.90;;;;;;;;;;5096633;28;20039;-72
2023/05/28 14:17:06;;;;;;;3.88;1.80;;;;;;;;;;5114770;28;20423;-70
2023/05/28 14:19:31;;;;;;;4.53;2.00;;;;;;;;;;5114276;28;20024;-72
2023/05/28 14:21:57;;;;;;;3.92;1.95;;;;;;;;;;5114701;28;20104;-72
2023/05/28 14:24:22;;;;;;;6.15;1.75;;;;;;;;;;5113253;28;20039;-73
2023/05/28 14:26:48;;;;;;;7.35;2.40;;;;;;;;;;5099366;28;20477;-72
2023/05/28 14:29:13;;;;;;;5.40;2.03;;;;;;;;;;5093573;28;20028;-70
2023/05/28 14:31:38;;;;;;;6.57;1.95;;;;;;;;;;5111991;28;20035;-70
2023/05/28 14:34:04;;;;;;;6.63;2.20;;;;;;;;;;5114225;28;20020;-70
2023/05/28 14:36:29;;;;;;;5.38;1.83;;;;;;;;;;5095184;28;20022;-68
2023/05/28 14:38:55;;;;;;;3.65;1.90;;;;;;;;;;5089068;28;20277;-70